createdAt,value
2023-12-29T00:00:13.388Z,8.00
2023-12-29T00:01:15.262Z,8.00
2023-12-29T00:02:17.342Z,8.00
2023-12-29T00:03:19.157Z,8.00
2023-12-29T00:04:21.320Z,7.90
2023-12-29T00:05:23.150Z,7.90
2023-12-29T00:06:25.032Z,7.80
2023-12-29T00:07:26.906Z,7.80
2023-12-29T00:08:28.659Z,7.80
2023-12-29T00:09:30.600Z,7.80
2023-12-29T00:10:32.473Z,7.70
2023-12-29T00:11:35.094Z,7.70
2023-12-29T00:12:36.976Z,7.60
2023-12-29T00:13:38.771Z,7.50
2023-12-29T00:14:41.494Z,7.50
2023-12-29T00:15:43.901Z,7.50
2023-12-29T00:16:45.758Z,7.50
2023-12-29T00:17:48.090Z,7.50
2023-12-29T00:18:50.082Z,7.50
2023-12-29T00:19:52.964Z,7.40
2023-12-29T00:21:06.152Z,7.40
2023-12-29T00:22:09.631Z,7.40
2023-12-29T00:23:11.590Z,7.40
2023-12-29T00:24:13.387Z,7.40
2023-12-29T00:25:15.286Z,7.40
2023-12-29T00:26:20.070Z,7.40
2023-12-29T00:27:22.244Z,7.40
2023-12-29T00:28:24.026Z,7.40
2023-12-29T00:29:26.098Z,7.50
2023-12-29T00:30:42.374Z,7.50
2023-12-29T00:31:53.584Z,7.60
2023-12-29T00:32:55.678Z,7.60
2023-12-29T00:33:57.682Z,7.60
2023-12-29T00:34:59.528Z,7.60
2023-12-29T00:36:01.376Z,7.60
2023-12-29T00:37:03.308Z,7.60
2023-12-29T00:38:05.260Z,7.70
2023-12-29T00:39:07.632Z,7.70
2023-12-29T00:40:10.663Z,7.70
2023-12-29T00:41:12.665Z,7.80
2023-12-29T00:42:14.652Z,7.80
2023-12-29T00:43:16.578Z,7.90
2023-12-29T00:44:18.413Z,7.90
2023-12-29T00:45:22.182Z,8.00
2023-12-29T00:46:24.181Z,8.00
2023-12-29T00:47:26.032Z,8.10
2023-12-29T00:48:27.905Z,8.10
2023-12-29T00:49:29.876Z,8.10
2023-12-29T00:50:31.867Z,8.10
2023-12-29T00:51:33.819Z,8.20
2023-12-29T00:52:37.500Z,8.20
2023-12-29T00:53:39.398Z,8.20
2023-12-29T00:54:41.879Z,8.20
2023-12-29T00:55:43.828Z,8.20
2023-12-29T00:56:52.624Z,8.20
2023-12-29T00:57:56.437Z,8.30
2023-12-29T00:58:58.319Z,8.30
2023-12-29T01:00:01.433Z,8.30
2023-12-29T01:01:03.359Z,8.30
2023-12-29T01:02:05.138Z,8.30
2023-12-29T01:03:06.960Z,8.30
2023-12-29T01:04:08.885Z,8.30
2023-12-29T01:05:10.854Z,8.30
2023-12-29T01:06:12.724Z,8.20
2023-12-29T01:07:14.538Z,8.20
2023-12-29T01:08:16.394Z,8.20
2023-12-29T01:09:18.137Z,8.30
2023-12-29T01:10:20.016Z,8.30
2023-12-29T01:11:21.842Z,8.20
2023-12-29T01:12:23.610Z,8.20
2023-12-29T01:13:25.388Z,8.20
2023-12-29T01:14:27.626Z,8.20
2023-12-29T01:15:29.863Z,8.20
2023-12-29T01:16:31.690Z,8.20
2023-12-29T01:17:33.468Z,8.20
2023-12-29T01:18:35.345Z,8.20
2023-12-29T01:19:37.242Z,8.20
2023-12-29T01:20:40.528Z,8.20
2023-12-29T01:21:42.373Z,8.20
2023-12-29T01:22:44.291Z,8.20
2023-12-29T01:23:46.047Z,8.20
2023-12-29T01:24:47.840Z,8.20
2023-12-29T01:25:49.679Z,8.20
2023-12-29T01:26:51.567Z,8.20
2023-12-29T01:27:53.376Z,8.20
2023-12-29T01:28:55.159Z,8.20
2023-12-29T01:29:56.939Z,8.20
2023-12-29T01:30:58.785Z,8.20
2023-12-29T01:32:00.863Z,8.10
2023-12-29T01:33:02.657Z,8.20
2023-12-29T01:34:04.629Z,8.10
2023-12-29T01:35:07.443Z,8.10
2023-12-29T01:36:15.137Z,8.10
2023-12-29T01:37:19.839Z,8.20
2023-12-29T01:38:21.626Z,8.20
2023-12-29T01:39:23.405Z,8.20
2023-12-29T01:40:25.283Z,8.20
2023-12-29T01:41:27.073Z,8.20
2023-12-29T01:42:28.842Z,8.20
2023-12-29T01:43:32.063Z,8.20
2023-12-29T01:44:33.932Z,8.20
2023-12-29T01:45:45.476Z,8.20
2023-12-29T01:46:55.897Z,8.20
2023-12-29T01:47:57.952Z,8.20
2023-12-29T01:49:00.656Z,8.20
2023-12-29T01:50:02.736Z,8.10
2023-12-29T01:51:05.150Z,8.10
2023-12-29T01:52:08.013Z,8.10
2023-12-29T01:53:09.903Z,8.20
2023-12-29T01:54:13.976Z,8.20
2023-12-29T01:55:24.591Z,8.20
2023-12-29T01:56:27.046Z,8.20
2023-12-29T01:57:28.852Z,8.20
2023-12-29T01:58:31.157Z,8.30
2023-12-29T01:59:33.293Z,8.30
2023-12-29T02:00:36.213Z,8.30
2023-12-29T02:01:40.918Z,8.30
2023-12-29T02:02:42.780Z,8.30
2023-12-29T02:03:45.701Z,8.30
2023-12-29T02:04:48.316Z,8.30
2023-12-29T02:05:51.089Z,8.30
2023-12-29T02:06:53.537Z,8.30
2023-12-29T02:07:55.515Z,8.30
2023-12-29T02:08:57.748Z,8.30
2023-12-29T02:10:00.817Z,8.30
2023-12-29T02:11:03.176Z,8.30
2023-12-29T02:12:05.310Z,8.30
2023-12-29T02:13:07.173Z,8.40
2023-12-29T02:14:09.715Z,8.40
2023-12-29T02:15:11.570Z,8.30
2023-12-29T02:16:57.823Z,8.30
2023-12-29T02:18:04.223Z,8.30
2023-12-29T02:19:24.627Z,8.30
2023-12-29T02:20:26.817Z,8.30
2023-12-29T02:21:28.700Z,8.30
2023-12-29T02:22:30.497Z,8.30
2023-12-29T02:23:32.356Z,8.30
2023-12-29T02:24:36.354Z,8.30
2023-12-29T02:25:38.417Z,8.30
2023-12-29T02:26:41.997Z,8.30
2023-12-29T02:27:52.455Z,8.20
2023-12-29T02:29:02.957Z,8.20
2023-12-29T02:30:13.315Z,8.20
2023-12-29T02:31:20.052Z,8.20
2023-12-29T02:32:23.637Z,8.10
2023-12-29T02:33:26.631Z,8.10
2023-12-29T02:34:31.627Z,8.10
2023-12-29T02:35:40.964Z,8.10
2023-12-29T02:36:44.053Z,8.10
2023-12-29T02:37:47.232Z,8.00
2023-12-29T02:38:49.004Z,8.00
2023-12-29T02:39:50.873Z,8.00
2023-12-29T02:40:53.305Z,8.00
2023-12-29T02:41:55.171Z,8.00
2023-12-29T02:42:57.209Z,8.10
2023-12-29T02:44:00.530Z,8.10
2023-12-29T02:45:02.366Z,8.00
2023-12-29T02:46:04.293Z,8.10
2023-12-29T02:47:06.565Z,8.00
2023-12-29T02:48:08.826Z,8.00
2023-12-29T02:49:14.010Z,8.00
2023-12-29T02:50:16.512Z,7.90
2023-12-29T02:51:18.301Z,7.90
2023-12-29T02:52:20.091Z,7.90
2023-12-29T02:53:21.885Z,8.00
2023-12-29T02:54:23.977Z,7.90
2023-12-29T02:55:25.752Z,8.00
2023-12-29T02:56:27.536Z,7.90
2023-12-29T02:57:29.470Z,7.90
2023-12-29T02:58:31.322Z,8.00
2023-12-29T02:59:33.054Z,8.00
2023-12-29T03:00:35.076Z,8.00
2023-12-29T03:01:37.011Z,8.10
2023-12-29T03:02:39.024Z,8.10
2023-12-29T03:03:41.314Z,8.10
2023-12-29T03:04:43.304Z,8.20
2023-12-29T03:05:45.790Z,8.20
2023-12-29T03:06:47.575Z,8.20
2023-12-29T03:07:49.492Z,8.20
2023-12-29T03:08:51.329Z,8.30
2023-12-29T03:09:53.266Z,8.30
2023-12-29T03:10:55.032Z,8.30
2023-12-29T03:11:56.786Z,8.30
2023-12-29T03:12:58.570Z,8.30
2023-12-29T03:14:00.358Z,8.30
2023-12-29T03:15:02.181Z,8.30
2023-12-29T03:16:04.182Z,8.30
2023-12-29T03:17:05.992Z,8.30
2023-12-29T03:18:07.906Z,8.30
2023-12-29T03:19:09.919Z,8.30
2023-12-29T03:20:12.381Z,8.30
2023-12-29T03:21:14.256Z,8.30
2023-12-29T03:22:16.187Z,8.30
2023-12-29T03:23:17.987Z,8.30
2023-12-29T03:24:19.851Z,8.30
2023-12-29T03:25:21.675Z,8.30
2023-12-29T03:26:23.451Z,8.30
2023-12-29T03:27:25.242Z,8.30
2023-12-29T03:28:26.992Z,8.30
2023-12-29T03:29:28.849Z,8.30
2023-12-29T03:30:30.768Z,8.30
2023-12-29T03:31:32.672Z,8.30
2023-12-29T03:32:34.525Z,8.30
2023-12-29T03:33:36.369Z,8.30
2023-12-29T03:34:38.346Z,8.40
2023-12-29T03:35:40.180Z,8.40
2023-12-29T03:36:42.045Z,8.40
2023-12-29T03:37:43.970Z,8.40
2023-12-29T03:38:45.757Z,8.40
2023-12-29T03:39:47.799Z,8.30
2023-12-29T03:40:49.629Z,8.30
2023-12-29T03:41:51.446Z,8.30
2023-12-29T03:42:53.226Z,8.20
2023-12-29T03:43:55.267Z,8.20
2023-12-29T03:44:57.004Z,8.20
2023-12-29T03:45:59.547Z,8.20
2023-12-29T03:47:01.309Z,8.20
2023-12-29T03:48:03.486Z,8.20
2023-12-29T03:49:05.608Z,8.20
2023-12-29T03:50:08.023Z,8.30
2023-12-29T03:51:09.834Z,8.30
2023-12-29T03:52:11.699Z,8.40
2023-12-29T03:53:13.610Z,8.40
2023-12-29T03:54:15.520Z,8.40
2023-12-29T03:55:17.402Z,8.40
2023-12-29T03:56:19.954Z,8.40
2023-12-29T03:57:21.817Z,8.40
2023-12-29T03:58:23.586Z,8.50
2023-12-29T03:59:25.329Z,8.50
2023-12-29T04:00:27.136Z,8.50
2023-12-29T04:01:29.852Z,8.60
2023-12-29T04:02:31.760Z,8.60
2023-12-29T04:03:34.376Z,8.60
2023-12-29T04:04:39.917Z,8.60
2023-12-29T04:05:42.006Z,8.60
2023-12-29T04:06:43.800Z,8.60
2023-12-29T04:07:45.630Z,8.60
2023-12-29T04:08:47.397Z,8.60
2023-12-29T04:09:49.271Z,8.60
2023-12-29T04:10:51.157Z,8.60
2023-12-29T04:11:53.003Z,8.60
2023-12-29T04:12:54.864Z,8.70
2023-12-29T04:13:57.068Z,8.70
2023-12-29T04:14:58.888Z,8.70
2023-12-29T04:16:01.025Z,8.70
2023-12-29T04:17:04.761Z,8.70
2023-12-29T04:18:06.774Z,8.70
2023-12-29T04:19:09.136Z,8.70
2023-12-29T04:20:11.285Z,8.70
2023-12-29T04:21:16.711Z,8.70
2023-12-29T04:22:18.515Z,8.70
2023-12-29T04:23:20.309Z,8.70
2023-12-29T04:24:22.137Z,8.70
2023-12-29T04:25:23.888Z,8.70
2023-12-29T04:26:25.690Z,8.70
2023-12-29T04:27:27.464Z,8.70
2023-12-29T04:28:29.214Z,8.80
2023-12-29T04:29:31.017Z,8.80
2023-12-29T04:30:32.840Z,8.70
2023-12-29T04:31:34.650Z,8.70
2023-12-29T04:32:36.562Z,8.70
2023-12-29T04:33:38.487Z,8.70
2023-12-29T04:34:40.503Z,8.70
2023-12-29T04:35:42.432Z,8.70
2023-12-29T04:36:44.359Z,8.70
2023-12-29T04:37:47.066Z,8.70
2023-12-29T04:38:48.828Z,8.70
2023-12-29T04:39:50.625Z,8.70
2023-12-29T04:40:52.485Z,8.70
2023-12-29T04:41:54.387Z,8.70
2023-12-29T04:42:56.210Z,8.60
2023-12-29T04:43:58.092Z,8.70
2023-12-29T04:44:59.905Z,8.70
2023-12-29T04:46:04.242Z,8.70
2023-12-29T04:47:06.111Z,8.80
2023-12-29T04:48:08.160Z,8.80
2023-12-29T04:49:10.373Z,8.80
2023-12-29T04:50:12.284Z,8.90
2023-12-29T04:51:14.110Z,8.90
2023-12-29T04:52:15.936Z,8.90
2023-12-29T04:53:17.724Z,8.80
2023-12-29T04:54:19.460Z,8.90
2023-12-29T04:55:21.524Z,8.90
2023-12-29T04:56:23.353Z,8.90
2023-12-29T04:57:25.143Z,8.90
2023-12-29T04:58:27.007Z,8.90
2023-12-29T04:59:28.797Z,8.90
2023-12-29T05:00:30.791Z,8.90
2023-12-29T05:01:32.769Z,8.90
2023-12-29T05:02:34.832Z,8.90
2023-12-29T05:03:36.649Z,8.90
2023-12-29T05:04:39.349Z,8.90
2023-12-29T05:05:41.360Z,9.00
2023-12-29T05:06:43.257Z,9.00
2023-12-29T05:07:45.082Z,9.00
2023-12-29T05:08:46.899Z,9.00
2023-12-29T05:09:48.769Z,9.00
2023-12-29T05:10:50.622Z,9.00
2023-12-29T05:11:52.384Z,9.10
2023-12-29T05:12:54.201Z,9.10
2023-12-29T05:13:56.008Z,9.10
2023-12-29T05:14:57.825Z,9.20
2023-12-29T05:15:59.713Z,9.20
2023-12-29T05:17:01.476Z,9.20
2023-12-29T05:18:04.166Z,9.20
2023-12-29T05:19:06.322Z,9.10
2023-12-29T05:20:08.924Z,9.10
2023-12-29T05:21:19.817Z,9.20
2023-12-29T05:22:21.620Z,9.20
2023-12-29T05:23:23.353Z,9.20
2023-12-29T05:24:25.229Z,9.20
2023-12-29T05:25:27.261Z,9.20
2023-12-29T05:26:29.002Z,9.20
2023-12-29T05:27:30.935Z,9.20
2023-12-29T05:28:32.733Z,9.20
2023-12-29T05:29:34.571Z,9.20
2023-12-29T05:30:37.021Z,9.20
2023-12-29T05:31:38.939Z,9.20
2023-12-29T05:32:40.823Z,9.20
2023-12-29T05:33:42.947Z,9.20
2023-12-29T05:34:44.902Z,9.20
2023-12-29T05:35:46.638Z,9.20
2023-12-29T05:36:50.783Z,9.20
2023-12-29T05:37:52.997Z,9.20
2023-12-29T05:38:54.815Z,9.20
2023-12-29T05:39:56.719Z,9.20
2023-12-29T05:40:58.551Z,9.20
2023-12-29T05:42:00.354Z,9.20
2023-12-29T05:43:02.153Z,9.20
2023-12-29T05:44:04.446Z,9.20
2023-12-29T05:45:06.501Z,9.20
2023-12-29T05:46:14.635Z,9.20
2023-12-29T05:47:19.014Z,9.20
2023-12-29T05:48:20.949Z,9.20
2023-12-29T05:49:27.131Z,9.20
2023-12-29T05:50:29.144Z,9.20
2023-12-29T05:51:30.937Z,9.20
2023-12-29T05:52:32.797Z,9.20
2023-12-29T05:53:34.709Z,9.20
2023-12-29T05:54:36.898Z,9.20
2023-12-29T05:55:39.377Z,9.20
2023-12-29T05:56:41.235Z,9.10
2023-12-29T05:57:43.046Z,9.10
2023-12-29T05:58:44.937Z,9.10
2023-12-29T05:59:46.745Z,9.10
2023-12-29T06:00:48.635Z,9.10
2023-12-29T06:01:50.646Z,9.10
2023-12-29T06:02:52.500Z,9.10
2023-12-29T06:03:54.345Z,9.10
2023-12-29T06:04:57.851Z,9.10
2023-12-29T06:05:59.663Z,9.10
2023-12-29T06:07:01.579Z,9.10
2023-12-29T06:08:03.623Z,9.10
2023-12-29T06:09:06.035Z,9.10
2023-12-29T06:10:09.525Z,9.10
2023-12-29T06:11:17.040Z,9.10
2023-12-29T06:12:18.869Z,9.10
2023-12-29T06:13:20.701Z,9.10
2023-12-29T06:14:22.553Z,9.10
2023-12-29T06:15:24.373Z,9.10
2023-12-29T06:16:28.011Z,9.10
2023-12-29T06:17:29.887Z,9.10
2023-12-29T06:18:31.820Z,9.10
2023-12-29T06:19:33.894Z,9.10
2023-12-29T06:20:35.713Z,9.10
2023-12-29T06:21:44.544Z,9.10
2023-12-29T06:22:46.666Z,9.00
2023-12-29T06:23:48.882Z,9.00
2023-12-29T06:24:50.732Z,9.00
2023-12-29T06:25:52.601Z,9.00
2023-12-29T06:26:54.411Z,9.00
2023-12-29T06:27:56.449Z,9.00
2023-12-29T06:28:58.384Z,9.00
2023-12-29T06:30:00.514Z,9.00
2023-12-29T06:31:03.996Z,9.10
2023-12-29T06:32:05.961Z,9.10
2023-12-29T06:33:08.639Z,9.10
2023-12-29T06:34:10.705Z,9.20
2023-12-29T06:35:12.656Z,9.20
2023-12-29T06:36:15.373Z,9.20
2023-12-29T06:37:17.318Z,9.20
2023-12-29T06:38:19.182Z,9.20
2023-12-29T06:39:21.089Z,9.20
2023-12-29T06:40:22.984Z,9.20
2023-12-29T06:41:25.636Z,9.20
2023-12-29T06:42:28.206Z,9.20
2023-12-29T06:43:30.117Z,9.20
2023-12-29T06:44:31.959Z,9.10
2023-12-29T06:45:33.887Z,9.20
2023-12-29T06:46:38.055Z,9.20
2023-12-29T06:47:39.910Z,9.20
2023-12-29T06:48:42.418Z,9.20
2023-12-29T06:49:44.444Z,9.20
2023-12-29T06:50:46.719Z,9.20
2023-12-29T06:51:48.553Z,9.20
2023-12-29T06:52:50.375Z,9.10
2023-12-29T06:53:52.300Z,9.20
2023-12-29T06:54:54.245Z,9.10
2023-12-29T06:55:56.230Z,9.20
2023-12-29T06:56:58.085Z,9.10
2023-12-29T06:58:00.175Z,9.10
2023-12-29T06:59:02.146Z,9.10
2023-12-29T07:00:05.275Z,9.20
2023-12-29T07:01:08.510Z,9.10
2023-12-29T07:02:10.341Z,9.20
2023-12-29T07:03:15.910Z,9.20
2023-12-29T07:04:18.013Z,9.20
2023-12-29T07:05:20.405Z,9.20
2023-12-29T07:06:22.336Z,9.20
2023-12-29T07:07:24.305Z,9.20
2023-12-29T07:08:26.239Z,9.20
2023-12-29T07:09:28.267Z,9.20
2023-12-29T07:10:30.117Z,9.20
2023-12-29T07:11:32.048Z,9.20
2023-12-29T07:12:33.979Z,9.20
2023-12-29T07:13:37.611Z,9.10
2023-12-29T07:14:42.639Z,9.10
2023-12-29T07:15:44.544Z,9.10
2023-12-29T07:16:46.870Z,9.10
2023-12-29T07:17:48.828Z,9.10
2023-12-29T07:18:50.844Z,9.00
2023-12-29T07:19:52.753Z,9.10
2023-12-29T07:20:54.688Z,9.10
2023-12-29T07:21:57.480Z,9.10
2023-12-29T07:22:59.386Z,9.10
2023-12-29T07:24:01.268Z,9.20
2023-12-29T07:25:03.744Z,9.20
2023-12-29T07:26:05.996Z,9.20
2023-12-29T07:27:08.541Z,9.20
2023-12-29T07:28:10.459Z,9.20
2023-12-29T07:29:12.335Z,9.20
2023-12-29T07:30:14.789Z,9.20
2023-12-29T07:31:16.986Z,9.20
2023-12-29T07:32:18.892Z,9.20
2023-12-29T07:33:20.777Z,9.30
2023-12-29T07:34:22.982Z,9.30
2023-12-29T07:35:25.070Z,9.30
2023-12-29T07:36:26.977Z,9.30
2023-12-29T07:37:28.797Z,9.30
2023-12-29T07:38:30.701Z,9.30
2023-12-29T07:39:32.613Z,9.30
2023-12-29T07:40:34.534Z,9.30
2023-12-29T07:41:42.054Z,9.30
2023-12-29T07:42:45.663Z,9.30
2023-12-29T07:43:47.634Z,9.30
2023-12-29T07:44:49.857Z,9.30
2023-12-29T07:45:51.688Z,9.20
2023-12-29T07:46:53.529Z,9.20
2023-12-29T07:47:56.058Z,9.20
2023-12-29T07:48:58.083Z,9.20
2023-12-29T07:50:01.064Z,9.20
2023-12-29T07:51:06.882Z,9.20
2023-12-29T07:52:12.228Z,9.20
2023-12-29T07:53:14.040Z,9.20
2023-12-29T07:54:16.696Z,9.20
2023-12-29T07:55:18.714Z,9.20
2023-12-29T07:57:22.705Z,9.30
2023-12-29T07:58:24.565Z,9.20
2023-12-29T07:59:27.833Z,9.30
2023-12-29T08:00:30.154Z,9.30
2023-12-29T08:01:32.072Z,9.30
2023-12-29T08:02:33.911Z,9.30
2023-12-29T08:03:37.181Z,9.30
2023-12-29T08:04:39.710Z,9.30
2023-12-29T08:05:43.958Z,9.30
2023-12-29T08:06:46.187Z,9.30
2023-12-29T08:07:47.978Z,9.30
2023-12-29T08:08:49.848Z,9.30
2023-12-29T08:09:51.699Z,9.30
2023-12-29T08:10:53.422Z,9.30
2023-12-29T08:11:55.263Z,9.30
2023-12-29T08:12:56.992Z,9.30
2023-12-29T08:13:58.896Z,9.30
2023-12-29T08:15:01.569Z,9.30
2023-12-29T08:16:03.534Z,9.30
2023-12-29T08:17:05.281Z,9.30
2023-12-29T08:18:07.921Z,9.30
2023-12-29T08:19:11.197Z,9.30
2023-12-29T08:20:13.261Z,9.30
2023-12-29T08:21:20.047Z,9.40
2023-12-29T08:22:22.241Z,9.40
2023-12-29T08:23:23.985Z,9.40
2023-12-29T08:24:25.847Z,9.40
2023-12-29T08:25:27.581Z,9.40
2023-12-29T08:26:29.747Z,9.40
2023-12-29T08:27:31.626Z,9.50
2023-12-29T08:28:33.380Z,9.50
2023-12-29T08:29:35.724Z,9.60
2023-12-29T08:30:38.690Z,9.60
2023-12-29T08:31:40.588Z,9.60
2023-12-29T08:32:42.453Z,9.60
2023-12-29T08:33:44.417Z,9.60
2023-12-29T08:34:46.280Z,9.70
2023-12-29T08:35:48.379Z,9.70
2023-12-29T08:36:50.185Z,9.70
2023-12-29T08:37:52.059Z,9.80
2023-12-29T08:38:54.214Z,9.80
2023-12-29T08:39:56.960Z,9.80
2023-12-29T08:41:00.568Z,9.80
2023-12-29T08:42:02.334Z,9.80
2023-12-29T08:43:04.355Z,9.80
2023-12-29T08:44:06.100Z,9.80
2023-12-29T08:45:09.485Z,9.80
2023-12-29T08:46:11.755Z,9.80
2023-12-29T08:47:14.650Z,9.80
2023-12-29T08:48:16.863Z,9.80
2023-12-29T08:49:19.915Z,9.80
2023-12-29T08:50:22.886Z,9.80
2023-12-29T08:51:24.624Z,9.80
2023-12-29T08:52:26.461Z,9.80
2023-12-29T08:53:28.259Z,9.80
2023-12-29T08:54:30.046Z,9.80
2023-12-29T08:55:32.481Z,9.80
2023-12-29T08:56:34.260Z,9.80
2023-12-29T08:57:36.111Z,9.80
2023-12-29T08:58:37.922Z,9.80
2023-12-29T08:59:39.722Z,9.80
2023-12-29T09:00:41.657Z,9.80
2023-12-29T09:01:43.644Z,9.80
2023-12-29T09:02:45.595Z,9.80
2023-12-29T09:03:48.005Z,9.90
2023-12-29T09:04:49.929Z,9.90
2023-12-29T09:05:51.729Z,9.90
2023-12-29T09:06:54.164Z,9.90
2023-12-29T09:07:55.929Z,9.90
2023-12-29T09:08:57.804Z,9.90
2023-12-29T09:10:00.365Z,9.90
2023-12-29T09:11:02.835Z,9.90
2023-12-29T09:12:04.969Z,9.90
2023-12-29T09:13:06.815Z,10.00
2023-12-29T09:14:08.711Z,10.00
2023-12-29T09:15:10.756Z,10.00
2023-12-29T09:16:12.808Z,10.00
2023-12-29T09:17:14.635Z,10.00
2023-12-29T09:18:16.475Z,10.00
2023-12-29T09:19:27.387Z,10.00
2023-12-29T09:20:38.128Z,10.00
2023-12-29T09:21:40.050Z,10.00
2023-12-29T09:22:41.898Z,10.00
2023-12-29T09:23:44.176Z,10.00
2023-12-29T09:24:46.663Z,10.00
2023-12-29T09:25:49.028Z,10.00
2023-12-29T09:26:52.283Z,10.00
2023-12-29T09:27:54.340Z,10.10
2023-12-29T09:28:56.102Z,10.10
2023-12-29T09:29:57.872Z,10.10
2023-12-29T09:30:59.967Z,10.00
2023-12-29T09:32:02.000Z,10.10
2023-12-29T09:33:04.388Z,10.10
2023-12-29T09:34:06.321Z,10.00
2023-12-29T09:35:08.184Z,10.00
2023-12-29T09:36:10.013Z,10.00
2023-12-29T09:37:11.867Z,10.00
2023-12-29T09:38:13.729Z,10.00
2023-12-29T09:39:15.586Z,10.00
2023-12-29T09:40:17.748Z,10.10
2023-12-29T09:41:21.928Z,10.10
2023-12-29T09:42:25.382Z,10.10
2023-12-29T09:43:27.264Z,10.10
2023-12-29T09:44:29.784Z,10.10
2023-12-29T09:45:34.342Z,10.10
2023-12-29T09:46:36.773Z,10.20
2023-12-29T09:47:43.889Z,10.10
2023-12-29T09:48:49.527Z,10.20
2023-12-29T09:49:56.749Z,10.20
2023-12-29T09:50:58.875Z,10.20
2023-12-29T09:52:03.373Z,10.20
2023-12-29T09:53:05.603Z,10.20
2023-12-29T09:54:14.029Z,10.20
2023-12-29T09:55:16.900Z,10.20
2023-12-29T09:56:19.874Z,10.20
2023-12-29T09:57:22.023Z,10.20
2023-12-29T09:58:26.464Z,10.20
2023-12-29T09:59:28.975Z,10.20
2023-12-29T10:00:31.512Z,10.20
2023-12-29T10:01:34.444Z,10.20
2023-12-29T10:02:36.821Z,10.20
2023-12-29T10:03:38.640Z,10.30
2023-12-29T10:04:40.630Z,10.30
2023-12-29T10:05:42.554Z,10.30
2023-12-29T10:06:50.353Z,10.40
2023-12-29T10:07:54.948Z,10.40
2023-12-29T10:08:57.519Z,10.40
2023-12-29T10:10:00.685Z,10.40
2023-12-29T10:11:04.876Z,10.40
2023-12-29T10:12:11.073Z,10.40
2023-12-29T10:13:13.673Z,10.40
2023-12-29T10:14:31.900Z,10.40
2023-12-29T10:15:50.692Z,10.50
2023-12-29T10:17:07.397Z,10.50
2023-12-29T10:18:15.326Z,10.50
2023-12-29T10:19:38.463Z,10.50
2023-12-29T10:21:14.390Z,10.50
2023-12-29T10:22:22.036Z,10.50
2023-12-29T10:23:38.781Z,10.50
2023-12-29T10:24:43.094Z,10.50
2023-12-29T10:25:45.129Z,10.50
2023-12-29T10:26:47.996Z,10.50
2023-12-29T10:27:50.268Z,10.50
2023-12-29T10:28:52.791Z,10.50
2023-12-29T10:29:54.548Z,10.50
2023-12-29T10:30:56.565Z,10.50
2023-12-29T10:31:58.483Z,10.50
2023-12-29T10:33:02.273Z,10.50
2023-12-29T10:34:20.815Z,10.50
2023-12-29T10:35:24.899Z,10.50
2023-12-29T10:36:28.665Z,10.60
2023-12-29T10:37:30.408Z,10.50
2023-12-29T10:38:32.582Z,10.60
2023-12-29T10:39:34.325Z,10.60
2023-12-29T10:40:36.195Z,10.60
2023-12-29T10:41:38.004Z,10.60
2023-12-29T10:42:55.928Z,10.60
2023-12-29T10:44:08.033Z,10.70
2023-12-29T10:45:11.302Z,10.70
2023-12-29T10:46:13.319Z,10.70
2023-12-29T10:47:16.207Z,10.70
2023-12-29T10:48:25.334Z,10.70
2023-12-29T10:49:27.354Z,10.70
2023-12-29T10:50:29.530Z,10.70
2023-12-29T10:51:34.772Z,10.80
2023-12-29T10:52:38.274Z,10.80
2023-12-29T10:53:41.882Z,10.80
2023-12-29T10:54:45.381Z,10.80
2023-12-29T10:55:47.696Z,10.80
2023-12-29T10:57:03.649Z,10.90
2023-12-29T10:58:06.796Z,10.90
2023-12-29T10:59:08.683Z,10.90
2023-12-29T11:00:13.545Z,11.00
2023-12-29T11:01:20.298Z,11.00
2023-12-29T11:02:22.321Z,11.00
2023-12-29T11:03:25.389Z,11.00
2023-12-29T11:04:27.196Z,11.10
2023-12-29T11:05:29.635Z,11.10
2023-12-29T11:06:45.986Z,11.10
2023-12-29T11:07:48.251Z,11.20
2023-12-29T11:08:50.713Z,11.20
2023-12-29T11:09:53.030Z,11.20
2023-12-29T11:10:55.914Z,11.20
2023-12-29T11:12:02.424Z,11.20
2023-12-29T11:13:04.517Z,11.20
2023-12-29T11:14:06.722Z,11.20
2023-12-29T11:15:09.622Z,11.20
2023-12-29T11:16:11.830Z,11.20
2023-12-29T11:17:15.526Z,11.30
2023-12-29T11:18:18.808Z,11.20
2023-12-29T11:19:22.029Z,11.20
2023-12-29T11:20:27.597Z,11.30
2023-12-29T11:21:31.059Z,11.30
2023-12-29T11:22:33.472Z,11.40
2023-12-29T11:23:40.129Z,11.40
2023-12-29T11:24:44.900Z,11.40
2023-12-29T11:25:50.062Z,11.30
2023-12-29T11:27:00.866Z,11.30
2023-12-29T11:28:03.274Z,11.30
2023-12-29T11:29:05.620Z,11.30
2023-12-29T11:30:09.621Z,11.30
2023-12-29T11:31:12.766Z,11.20
2023-12-29T11:32:23.495Z,11.20
2023-12-29T11:33:36.156Z,11.30
2023-12-29T11:34:43.999Z,11.30
2023-12-29T11:36:16.980Z,11.30
2023-12-29T11:37:54.520Z,11.30
2023-12-29T11:39:01.350Z,11.30
2023-12-29T11:40:12.734Z,11.20
2023-12-29T11:41:20.436Z,11.20
2023-12-29T11:42:35.896Z,11.20
2023-12-29T11:43:38.266Z,11.20
2023-12-29T11:44:40.483Z,11.20
2023-12-29T11:45:42.393Z,11.20
2023-12-29T11:46:45.498Z,11.20
2023-12-29T11:47:53.854Z,11.20
2023-12-29T11:48:59.358Z,11.20
2023-12-29T11:50:02.705Z,11.20
2023-12-29T11:51:30.870Z,11.20
2023-12-29T11:52:36.793Z,11.20
2023-12-29T11:53:38.534Z,11.10
2023-12-29T11:54:40.494Z,11.10
2023-12-29T11:55:44.184Z,11.10
2023-12-29T11:56:46.089Z,11.10
2023-12-29T11:57:48.332Z,11.20
2023-12-29T11:58:50.214Z,11.10
2023-12-29T11:59:52.429Z,11.10
2023-12-29T12:00:54.483Z,11.10
2023-12-29T12:01:59.212Z,11.10
2023-12-29T12:03:01.504Z,11.10
2023-12-29T12:04:03.569Z,11.10
2023-12-29T12:05:05.562Z,11.10
2023-12-29T12:06:09.402Z,11.10
2023-12-29T12:07:18.266Z,11.10
2023-12-29T12:08:29.269Z,11.10
2023-12-29T12:09:31.237Z,11.20
2023-12-29T12:10:35.076Z,11.20
2023-12-29T12:11:39.682Z,11.10
2023-12-29T12:12:43.414Z,11.10
2023-12-29T12:13:49.037Z,11.10
2023-12-29T12:14:55.072Z,11.10
2023-12-29T12:15:56.924Z,11.10
2023-12-29T12:16:59.294Z,11.10
2023-12-29T12:18:07.750Z,11.10
2023-12-29T12:19:10.742Z,11.10
2023-12-29T12:20:14.316Z,11.10
2023-12-29T12:21:19.252Z,11.10
2023-12-29T12:22:22.815Z,11.00
2023-12-29T12:23:27.139Z,11.00
2023-12-29T12:24:29.618Z,11.00
2023-12-29T12:25:36.162Z,11.00
2023-12-29T12:26:38.109Z,11.00
2023-12-29T12:27:40.580Z,11.00
2023-12-29T12:28:46.089Z,11.10
2023-12-29T12:29:50.474Z,11.10
2023-12-29T12:30:52.331Z,11.10
2023-12-29T12:31:58.242Z,11.10
2023-12-29T12:33:01.763Z,11.10
2023-12-29T12:34:04.158Z,11.20
2023-12-29T12:35:17.605Z,11.20
2023-12-29T12:36:20.648Z,11.20
2023-12-29T12:37:27.443Z,11.20
2023-12-29T12:38:31.634Z,11.20
2023-12-29T12:39:43.194Z,11.10
2023-12-29T12:40:45.073Z,11.20
2023-12-29T12:41:47.653Z,11.10
2023-12-29T12:42:49.489Z,11.10
2023-12-29T12:44:09.945Z,11.10
2023-12-29T12:45:21.219Z,11.10
2023-12-29T12:46:27.882Z,11.10
2023-12-29T12:47:39.074Z,11.10
2023-12-29T12:48:46.971Z,11.10
2023-12-29T12:49:49.297Z,11.10
2023-12-29T12:50:51.601Z,11.10
2023-12-29T12:51:54.822Z,11.10
2023-12-29T12:52:59.549Z,11.00
2023-12-29T12:54:02.240Z,11.10
2023-12-29T12:55:05.302Z,11.10
2023-12-29T12:56:08.783Z,11.10
2023-12-29T12:57:11.122Z,11.10
2023-12-29T12:58:14.991Z,11.10
2023-12-29T12:59:17.754Z,11.10
2023-12-29T13:00:20.733Z,11.10
2023-12-29T13:01:23.096Z,11.20
2023-12-29T13:02:26.426Z,11.20
2023-12-29T13:03:28.484Z,11.20
2023-12-29T13:04:30.404Z,11.20
2023-12-29T13:05:33.093Z,11.20
2023-12-29T13:06:39.712Z,11.20
2023-12-29T13:07:41.556Z,11.20
2023-12-29T13:08:44.110Z,11.20
2023-12-29T13:09:48.461Z,11.20
2023-12-29T13:10:50.728Z,11.20
2023-12-29T13:12:07.955Z,11.20
2023-12-29T13:13:10.852Z,11.20
2023-12-29T13:14:26.762Z,11.20
2023-12-29T13:15:28.912Z,11.10
2023-12-29T13:16:31.576Z,11.10
2023-12-29T13:17:33.679Z,11.10
2023-12-29T13:18:36.247Z,11.10
2023-12-29T13:19:42.167Z,11.10
2023-12-29T13:20:51.519Z,11.10
2023-12-29T13:21:56.845Z,11.10
2023-12-29T13:22:59.212Z,11.10
2023-12-29T13:24:05.269Z,11.10
2023-12-29T13:25:09.463Z,11.10
2023-12-29T13:26:13.063Z,11.10
2023-12-29T13:27:15.297Z,11.20
2023-12-29T13:28:17.431Z,11.20
2023-12-29T13:29:27.051Z,11.20
2023-12-29T13:30:28.948Z,11.20
2023-12-29T13:31:31.008Z,11.20
2023-12-29T13:32:35.927Z,11.20
2023-12-29T13:33:58.629Z,11.20
2023-12-29T13:35:20.311Z,11.20
2023-12-29T13:36:30.328Z,11.20
2023-12-29T13:37:34.202Z,11.20
2023-12-29T13:38:45.953Z,11.20
2023-12-29T13:39:55.646Z,11.20
2023-12-29T13:41:10.572Z,11.20
2023-12-29T13:42:14.985Z,11.20
2023-12-29T13:43:19.329Z,11.20
2023-12-29T13:44:22.769Z,11.20
2023-12-29T13:45:25.201Z,11.20
2023-12-29T13:46:27.318Z,11.20
2023-12-29T13:47:29.822Z,11.20
2023-12-29T13:48:33.427Z,11.20
2023-12-29T13:49:37.769Z,11.20
2023-12-29T13:50:41.671Z,11.20
2023-12-29T13:51:43.662Z,11.20
2023-12-29T13:52:46.072Z,11.20
2023-12-29T13:53:47.877Z,11.20
2023-12-29T13:54:50.143Z,11.20
2023-12-29T13:55:52.033Z,11.20